KRKW/RKW METAR and TAF weather

Enter ICAO airport designator
Station Type Date Time Source
KRKW METAR 2019/04/22 18:35 UTC NOAA

KRKW 221835Z AUTO 13003KT 10SM CLR 23/05 A3020 RMK A01


Station Type Date Time Source
KRKW Decoded METAR 2019/04/22 18:35 UTC NOAA

Station name not available
Apr 22, 2019 - 02:35 PM EDT / 2019.04.22 1835 UTC
Wind: from the SE (130 degrees) at 3 MPH (3 KT):0
Visibility: 10 mile(s):0
Sky conditions: clear
Temperature: 73 F (23 C)
Dew Point: 41 F (5 C)
Relative Humidity: 31%
Pressure (altimeter): 30.2 in. Hg (1022 hPa)
ob: KRKW 221835Z AUTO 13003KT 10SM CLR 23/05 A3020 RMK A01
cycle: 18

Station Type Date Time Source
KRKW TAF 2009/08/31 19:50 UTC NOAA

METAR KRKW 311950Z AUTO VRB05KT 10SM CLR 25/13 A3010
RMK AO1 T02500133 $

Example: see airport list